createdAt,value
2018-08-28T00:00:08.375Z,47.30
2018-08-28T00:00:40.249Z,47.30
2018-08-28T00:01:12.031Z,47.20
2018-08-28T00:01:43.891Z,47.20
2018-08-28T00:02:15.694Z,47.20
2018-08-28T00:02:47.806Z,47.30
2018-08-28T00:03:20.055Z,47.20
2018-08-28T00:03:52.003Z,47.20
2018-08-28T00:04:23.945Z,47.20
2018-08-28T00:04:55.793Z,47.20
2018-08-28T00:05:27.632Z,47.30
2018-08-28T00:05:59.555Z,47.30
2018-08-28T00:06:31.372Z,47.30
2018-08-28T00:07:03.195Z,47.30
2018-08-28T00:07:34.985Z,47.20
2018-08-28T00:08:06.816Z,47.20
2018-08-28T00:08:38.604Z,47.30
2018-08-28T00:09:10.484Z,47.30
2018-08-28T00:09:42.314Z,47.30
2018-08-28T00:10:14.395Z,47.30
2018-08-28T00:10:46.242Z,47.40
2018-08-28T00:11:18.256Z,47.40
2018-08-28T00:11:50.473Z,47.30
2018-08-28T00:12:22.280Z,47.30
2018-08-28T00:12:54.225Z,47.40
2018-08-28T00:13:26.562Z,47.40
2018-08-28T00:13:58.402Z,47.40
2018-08-28T00:14:30.248Z,47.40
2018-08-28T00:15:02.114Z,47.40
2018-08-28T00:15:33.908Z,47.40
2018-08-28T00:16:05.731Z,47.40
2018-08-28T00:16:37.770Z,47.40
2018-08-28T00:17:09.803Z,47.40
2018-08-28T00:17:42.183Z,47.40
2018-08-28T00:18:14.011Z,47.40
2018-08-28T00:18:46.177Z,47.50
2018-08-28T00:19:18.161Z,47.40
2018-08-28T00:19:50.074Z,47.40
2018-08-28T00:20:22.033Z,47.50
2018-08-28T00:20:53.883Z,48.20
2018-08-28T00:21:25.761Z,47.50
2018-08-28T00:21:57.733Z,47.50
2018-08-28T00:22:29.613Z,47.60
2018-08-28T00:23:01.786Z,47.60
2018-08-28T00:23:33.985Z,47.50
2018-08-28T00:24:05.854Z,47.60
2018-08-28T00:24:37.870Z,47.60
2018-08-28T00:25:09.653Z,47.70
2018-08-28T00:25:41.567Z,47.60
2018-08-28T00:26:13.389Z,47.60
2018-08-28T00:26:45.284Z,47.60
2018-08-28T00:27:17.216Z,47.60
2018-08-28T00:27:49.032Z,47.60
2018-08-28T00:28:20.886Z,47.60
2018-08-28T00:28:52.786Z,47.60
2018-08-28T00:29:24.605Z,47.70
2018-08-28T00:29:56.456Z,47.70
2018-08-28T00:30:28.261Z,47.60
2018-08-28T00:31:00.101Z,47.40
2018-08-28T00:31:32.054Z,47.70
2018-08-28T00:32:03.950Z,47.70
2018-08-28T00:32:35.766Z,48.20
2018-08-28T00:33:07.549Z,47.70
2018-08-28T00:33:39.838Z,47.70
2018-08-28T00:34:11.761Z,47.70
2018-08-28T00:34:43.719Z,47.70
2018-08-28T00:35:15.660Z,47.70
2018-08-28T00:35:47.559Z,47.70
2018-08-28T00:36:19.414Z,47.90
2018-08-28T00:36:51.320Z,47.80
2018-08-28T00:37:23.237Z,47.80
2018-08-28T00:37:55.270Z,47.80
2018-08-28T00:38:27.125Z,47.90
2018-08-28T00:38:58.981Z,47.80
2018-08-28T00:39:30.772Z,47.80
2018-08-28T00:40:02.641Z,48.10
2018-08-28T00:40:34.451Z,47.90
2018-08-28T00:41:06.283Z,48.00
2018-08-28T00:41:38.118Z,48.00
2018-08-28T00:42:09.982Z,48.00
2018-08-28T00:42:41.822Z,48.00
2018-08-28T00:43:14.022Z,48.00
2018-08-28T00:43:45.914Z,48.00
2018-08-28T00:44:17.739Z,48.00
2018-08-28T00:44:49.683Z,48.60
2018-08-28T00:45:21.535Z,48.00
2018-08-28T00:45:53.366Z,48.10
2018-08-28T00:46:25.214Z,48.10
2018-08-28T00:46:57.147Z,48.10
2018-08-28T00:47:28.965Z,48.10
2018-08-28T00:48:00.894Z,48.10
2018-08-28T00:48:32.664Z,48.10
2018-08-28T00:49:04.496Z,48.20
2018-08-28T00:49:36.332Z,48.10
2018-08-28T00:50:08.200Z,48.20
2018-08-28T00:50:40.201Z,48.00
2018-08-28T00:51:12.041Z,48.20
2018-08-28T00:51:43.818Z,48.20
2018-08-28T00:52:15.782Z,48.20
2018-08-28T00:52:47.785Z,48.30
2018-08-28T00:53:19.646Z,48.20
2018-08-28T00:53:52.001Z,48.20
2018-08-28T00:54:23.892Z,48.20
2018-08-28T00:54:55.690Z,48.20
2018-08-28T00:55:42.177Z,48.20
2018-08-28T00:56:14.024Z,48.30
2018-08-28T00:56:46.041Z,48.20
2018-08-28T00:57:17.861Z,48.20
2018-08-28T00:57:49.702Z,48.40
2018-08-28T00:58:21.503Z,48.40
2018-08-28T00:58:53.734Z,48.50
2018-08-28T00:59:25.575Z,48.30
2018-08-28T00:59:57.493Z,48.30
2018-08-28T01:00:29.556Z,48.30
2018-08-28T01:01:01.389Z,48.40
2018-08-28T01:01:33.203Z,48.90
2018-08-28T01:02:05.020Z,48.30
2018-08-28T01:02:36.831Z,48.30
2018-08-28T01:03:08.655Z,48.50
2018-08-28T01:03:40.734Z,48.40
2018-08-28T01:04:12.782Z,48.30
2018-08-28T01:04:44.740Z,48.40
2018-08-28T01:05:16.681Z,48.40
2018-08-28T01:05:48.624Z,48.50
2018-08-28T01:06:20.491Z,48.70
2018-08-28T01:06:52.433Z,48.80
2018-08-28T01:07:24.232Z,49.00
2018-08-28T01:07:56.077Z,49.60
2018-08-28T01:08:27.901Z,49.10
2018-08-28T01:08:59.721Z,49.00
2018-08-28T01:09:31.505Z,49.10
2018-08-28T01:10:03.362Z,49.00
2018-08-28T01:10:35.165Z,49.00
2018-08-28T01:11:07.038Z,49.00
2018-08-28T01:11:38.902Z,48.90
2018-08-28T01:12:10.771Z,48.80
2018-08-28T01:12:43.134Z,48.80
2018-08-28T01:13:15.234Z,48.80
2018-08-28T01:13:47.059Z,48.80
2018-08-28T01:14:18.984Z,48.80
2018-08-28T01:14:51.025Z,48.80
2018-08-28T01:15:22.902Z,48.80
2018-08-28T01:15:54.694Z,48.80
2018-08-28T01:16:26.605Z,48.90
2018-08-28T01:16:58.446Z,48.80
2018-08-28T01:17:30.295Z,48.80
2018-08-28T01:18:02.329Z,48.70
2018-08-28T01:18:34.364Z,48.80
2018-08-28T01:19:06.355Z,48.90
2018-08-28T01:19:38.336Z,48.70
2018-08-28T01:20:10.175Z,48.70
2018-08-28T01:20:42.125Z,48.70
2018-08-28T01:21:13.936Z,48.80
2018-08-28T01:21:45.737Z,48.80
2018-08-28T01:22:17.604Z,49.20
2018-08-28T01:22:49.517Z,48.80
2018-08-28T01:23:21.483Z,48.90
2018-08-28T01:23:53.377Z,48.90
2018-08-28T01:24:25.180Z,48.90
2018-08-28T01:24:57.101Z,49.00
2018-08-28T01:25:28.912Z,48.90
2018-08-28T01:26:00.875Z,48.90
2018-08-28T01:26:32.732Z,48.90
2018-08-28T01:27:04.791Z,49.00
2018-08-28T01:27:36.877Z,49.00
2018-08-28T01:28:08.994Z,49.00
2018-08-28T01:28:40.767Z,49.00
2018-08-28T01:29:13.040Z,49.00
2018-08-28T01:29:44.915Z,49.00
2018-08-28T01:30:16.770Z,49.10
2018-08-28T01:30:48.682Z,49.00
2018-08-28T01:31:20.509Z,49.10
2018-08-28T01:31:52.410Z,49.10
2018-08-28T01:32:24.449Z,49.00
2018-08-28T01:32:56.279Z,49.00
2018-08-28T01:33:28.131Z,49.10
2018-08-28T01:34:00.012Z,49.10
2018-08-28T01:34:32.211Z,49.00
2018-08-28T01:35:04.092Z,49.10
2018-08-28T01:35:36.117Z,49.10
2018-08-28T01:36:07.959Z,49.10
2018-08-28T01:36:39.916Z,49.20
2018-08-28T01:37:11.709Z,49.10
2018-08-28T01:37:43.876Z,49.20
2018-08-28T01:38:15.681Z,49.20
2018-08-28T01:38:47.526Z,49.70
2018-08-28T01:39:19.313Z,49.20
2018-08-28T01:39:51.198Z,49.10
2018-08-28T01:40:23.029Z,49.30
2018-08-28T01:40:54.857Z,49.30
2018-08-28T01:41:26.675Z,49.30
2018-08-28T01:41:58.766Z,49.50
2018-08-28T01:42:30.588Z,49.80
2018-08-28T01:43:02.442Z,49.90
2018-08-28T01:43:34.265Z,49.90
2018-08-28T01:44:06.069Z,49.90
2018-08-28T01:44:37.914Z,49.80
2018-08-28T01:45:09.716Z,49.80
2018-08-28T01:45:41.537Z,49.70
2018-08-28T01:46:13.535Z,49.70
2018-08-28T01:46:45.345Z,49.60
2018-08-28T01:47:17.422Z,49.60
2018-08-28T01:47:49.291Z,49.70
2018-08-28T01:48:21.106Z,49.60
2018-08-28T01:48:53.095Z,49.50
2018-08-28T01:49:24.971Z,49.50
2018-08-28T01:49:56.758Z,49.50
2018-08-28T01:50:28.598Z,49.50
2018-08-28T01:51:00.516Z,49.60
2018-08-28T01:51:32.383Z,49.60
2018-08-28T01:52:04.159Z,49.50
2018-08-28T01:52:36.062Z,49.70
2018-08-28T01:53:07.941Z,50.00
2018-08-28T01:53:39.853Z,50.20
2018-08-28T01:54:11.741Z,50.40
2018-08-28T01:54:43.573Z,50.30
2018-08-28T01:55:15.400Z,50.20
2018-08-28T01:55:47.222Z,50.40
2018-08-28T01:56:19.013Z,50.20
2018-08-28T01:56:50.878Z,50.30
2018-08-28T01:57:22.839Z,50.20
2018-08-28T01:57:54.658Z,50.20
2018-08-28T01:58:26.472Z,50.10
2018-08-28T01:58:58.298Z,50.10
2018-08-28T01:59:30.187Z,50.20
2018-08-28T02:00:02.011Z,49.90
2018-08-28T02:00:33.839Z,49.90
2018-08-28T02:01:05.689Z,49.90
2018-08-28T02:01:37.652Z,49.80
2018-08-28T02:02:09.568Z,49.80
2018-08-28T02:02:41.378Z,49.80
2018-08-28T02:03:13.413Z,49.80
2018-08-28T02:03:45.218Z,49.80
2018-08-28T02:04:17.077Z,49.90
2018-08-28T02:04:49.048Z,49.80
2018-08-28T02:05:21.017Z,49.70
2018-08-28T02:05:52.827Z,49.80
2018-08-28T02:06:24.676Z,49.70
2018-08-28T02:06:56.519Z,49.70
2018-08-28T02:07:28.328Z,49.70
2018-08-28T02:08:00.389Z,49.70
2018-08-28T02:08:32.325Z,49.70
2018-08-28T02:09:04.268Z,49.80
2018-08-28T02:09:36.220Z,49.90
2018-08-28T02:10:08.136Z,49.90
2018-08-28T02:10:40.324Z,49.80
2018-08-28T02:11:12.266Z,50.00
2018-08-28T02:11:44.132Z,50.60
2018-08-28T02:12:15.956Z,49.80
2018-08-28T02:12:47.775Z,49.80
2018-08-28T02:13:19.769Z,49.90
2018-08-28T02:13:51.765Z,49.80
2018-08-28T02:14:23.534Z,49.80
2018-08-28T02:14:55.584Z,49.80
2018-08-28T02:15:27.401Z,49.80
2018-08-28T02:15:59.244Z,49.80
2018-08-28T02:16:31.048Z,49.90
2018-08-28T02:17:02.855Z,49.80
2018-08-28T02:17:34.744Z,49.90
2018-08-28T02:18:06.629Z,49.90
2018-08-28T02:18:38.408Z,49.90
2018-08-28T02:19:10.304Z,49.90
2018-08-28T02:19:42.301Z,50.00
2018-08-28T02:20:14.262Z,50.00
2018-08-28T02:20:46.225Z,50.00
2018-08-28T02:21:18.065Z,50.00
2018-08-28T02:21:49.956Z,50.00
2018-08-28T02:22:21.898Z,49.90
2018-08-28T02:22:53.975Z,50.00
2018-08-28T02:23:25.943Z,50.00
2018-08-28T02:23:58.003Z,50.00
2018-08-28T02:24:29.922Z,50.00
2018-08-28T02:25:02.082Z,49.90
2018-08-28T02:25:33.902Z,49.90
2018-08-28T02:26:05.700Z,50.00
2018-08-28T02:26:37.632Z,50.00
2018-08-28T02:27:09.540Z,50.00
2018-08-28T02:27:41.363Z,50.10
2018-08-28T02:28:13.417Z,50.00
2018-08-28T02:28:45.297Z,50.00
2018-08-28T02:29:17.075Z,50.00
2018-08-28T02:29:48.994Z,50.20
2018-08-28T02:30:20.898Z,50.20
2018-08-28T02:30:52.821Z,50.10
2018-08-28T02:31:24.644Z,50.20
2018-08-28T02:31:56.511Z,49.60
2018-08-28T02:32:28.450Z,50.00
2018-08-28T02:33:00.269Z,49.90
2018-08-28T02:33:32.109Z,50.10
2018-08-28T02:34:04.210Z,50.00
2018-08-28T02:34:36.069Z,50.10
2018-08-28T02:35:07.980Z,50.10
2018-08-28T02:35:39.792Z,50.20
2018-08-28T02:36:11.643Z,50.10
2018-08-28T02:36:43.840Z,50.20
2018-08-28T02:37:15.791Z,50.20
2018-08-28T02:37:47.629Z,50.20
2018-08-28T02:38:19.470Z,50.80
2018-08-28T02:38:51.309Z,50.30
2018-08-28T02:39:23.130Z,50.20
2018-08-28T02:39:55.033Z,50.20
2018-08-28T02:40:26.870Z,50.20
2018-08-28T02:40:58.730Z,50.20
2018-08-28T02:41:30.713Z,50.20
2018-08-28T02:42:02.709Z,50.90
2018-08-28T02:42:34.578Z,50.30
2018-08-28T02:43:06.619Z,50.30
2018-08-28T02:43:38.412Z,50.30
2018-08-28T02:44:10.254Z,50.20
2018-08-28T02:44:42.073Z,50.20
2018-08-28T02:45:13.901Z,50.20
2018-08-28T02:45:45.697Z,50.20
2018-08-28T02:46:17.624Z,50.20
2018-08-28T02:46:49.471Z,50.20
2018-08-28T02:47:21.337Z,50.20
2018-08-28T02:47:53.156Z,50.30
2018-08-28T02:48:24.994Z,50.20
2018-08-28T02:48:56.789Z,50.20
2018-08-28T02:49:28.629Z,50.20
2018-08-28T02:50:00.485Z,50.30
2018-08-28T02:50:32.332Z,50.20
2018-08-28T02:51:04.183Z,50.20
2018-08-28T02:51:36.029Z,50.80
2018-08-28T02:52:08.158Z,50.30
2018-08-28T02:52:39.985Z,50.20
2018-08-28T02:53:11.959Z,50.20
2018-08-28T02:53:43.762Z,50.20
2018-08-28T02:54:15.790Z,50.30
2018-08-28T02:54:47.642Z,50.30
2018-08-28T02:55:19.551Z,50.30
2018-08-28T02:55:51.464Z,50.30
2018-08-28T02:56:23.338Z,50.50
2018-08-28T02:56:55.332Z,50.40
2018-08-28T02:57:27.218Z,50.40
2018-08-28T02:57:59.058Z,50.40
2018-08-28T02:58:31.056Z,50.60
2018-08-28T02:59:03.168Z,51.20
2018-08-28T02:59:35.080Z,50.50
2018-08-28T03:00:07.078Z,50.60
2018-08-28T03:00:39.012Z,50.60
2018-08-28T03:01:11.028Z,50.50
2018-08-28T03:01:42.853Z,51.20
2018-08-28T03:02:14.651Z,50.50
2018-08-28T03:02:46.601Z,50.40
2018-08-28T03:03:18.508Z,50.50
2018-08-28T03:03:50.409Z,50.30
2018-08-28T03:04:22.376Z,50.30
2018-08-28T03:04:54.217Z,50.40
2018-08-28T03:05:26.090Z,50.40
2018-08-28T03:05:57.918Z,50.40
2018-08-28T03:06:29.877Z,50.40
2018-08-28T03:07:01.805Z,50.30
2018-08-28T03:07:33.867Z,50.40
2018-08-28T03:08:05.738Z,50.50
2018-08-28T03:08:37.668Z,50.50
2018-08-28T03:09:09.587Z,50.50
2018-08-28T03:09:41.398Z,50.50
2018-08-28T03:10:13.249Z,50.50
2018-08-28T03:10:45.047Z,50.40
2018-08-28T03:11:16.958Z,50.40
2018-08-28T03:11:48.786Z,50.40
2018-08-28T03:12:20.648Z,50.40
2018-08-28T03:12:52.432Z,50.40
2018-08-28T03:13:24.315Z,50.50
2018-08-28T03:13:56.185Z,50.40
2018-08-28T03:14:28.151Z,50.60
2018-08-28T03:15:00.137Z,50.50
2018-08-28T03:15:32.071Z,50.60
2018-08-28T03:16:04.036Z,50.60
2018-08-28T03:16:36.016Z,50.60
2018-08-28T03:17:07.858Z,50.60
2018-08-28T03:17:39.663Z,50.60
2018-08-28T03:18:11.474Z,50.50
2018-08-28T03:18:43.271Z,50.60
2018-08-28T03:19:15.078Z,51.20
2018-08-28T03:19:47.116Z,50.60
2018-08-28T03:20:18.929Z,50.60
2018-08-28T03:20:50.790Z,50.70
2018-08-28T03:21:22.611Z,50.60
2018-08-28T03:21:54.435Z,50.70
2018-08-28T03:22:26.208Z,50.70
2018-08-28T03:22:58.096Z,50.70
2018-08-28T03:23:29.867Z,50.80
2018-08-28T03:24:01.713Z,50.70
2018-08-28T03:24:33.528Z,50.70
2018-08-28T03:25:05.336Z,50.80
2018-08-28T03:25:37.280Z,50.80
2018-08-28T03:26:09.105Z,50.80
2018-08-28T03:26:41.040Z,50.70
2018-08-28T03:27:12.897Z,50.70
2018-08-28T03:27:44.735Z,50.70
2018-08-28T03:28:16.523Z,50.70
2018-08-28T03:28:48.365Z,50.70
2018-08-28T03:29:20.192Z,50.70
2018-08-28T03:29:52.257Z,50.70
2018-08-28T03:30:24.096Z,50.70
2018-08-28T03:30:56.069Z,50.60
2018-08-28T03:31:28.155Z,50.60
2018-08-28T03:32:00.010Z,50.70
2018-08-28T03:32:31.808Z,50.60
2018-08-28T03:33:03.697Z,50.60
2018-08-28T03:33:35.652Z,50.60
2018-08-28T03:34:07.441Z,50.70
2018-08-28T03:34:39.284Z,50.70
2018-08-28T03:35:11.085Z,50.70
2018-08-28T03:35:42.875Z,50.70
2018-08-28T03:36:14.754Z,50.70
2018-08-28T03:36:46.595Z,50.70
2018-08-28T03:37:18.381Z,50.70
2018-08-28T03:37:50.215Z,50.70
2018-08-28T03:38:22.056Z,50.70
2018-08-28T03:38:53.868Z,50.70
2018-08-28T03:39:25.701Z,50.80
2018-08-28T03:39:57.545Z,50.70
2018-08-28T03:40:29.416Z,50.70
2018-08-28T03:41:01.245Z,50.70
2018-08-28T03:41:33.086Z,50.70
2018-08-28T03:42:05.167Z,50.80
2018-08-28T03:42:37.085Z,50.70
2018-08-28T03:43:08.986Z,51.30
2018-08-28T03:43:40.887Z,50.80
2018-08-28T03:44:12.730Z,51.50
2018-08-28T03:44:44.634Z,50.80
2018-08-28T03:45:16.687Z,50.80
2018-08-28T03:45:48.482Z,50.80
2018-08-28T03:46:20.407Z,50.80
2018-08-28T03:46:52.334Z,50.80
2018-08-28T03:47:24.368Z,50.90
2018-08-28T03:47:56.141Z,50.80
2018-08-28T03:48:27.989Z,50.80
2018-08-28T03:48:59.807Z,50.90
2018-08-28T03:49:31.627Z,51.00
2018-08-28T03:50:03.490Z,51.00
2018-08-28T03:50:35.457Z,51.00
2018-08-28T03:51:07.318Z,51.10
2018-08-28T03:51:39.212Z,51.20
2018-08-28T03:52:11.012Z,51.10
2018-08-28T03:52:42.868Z,51.00
2018-08-28T03:53:14.769Z,50.90
2018-08-28T03:53:46.608Z,50.90
2018-08-28T03:54:18.498Z,50.90
2018-08-28T03:54:50.296Z,50.90
2018-08-28T03:55:22.296Z,50.90
2018-08-28T03:55:54.419Z,51.00
2018-08-28T03:56:26.277Z,50.90
2018-08-28T03:56:58.106Z,50.90
2018-08-28T03:57:30.039Z,50.90
2018-08-28T03:58:01.838Z,51.00
2018-08-28T03:58:33.768Z,51.10
2018-08-28T03:59:05.618Z,51.20
2018-08-28T03:59:37.506Z,51.20
2018-08-28T04:00:09.519Z,51.20
2018-08-28T04:00:41.377Z,51.30
2018-08-28T04:01:13.489Z,51.30
2018-08-28T04:01:45.301Z,50.80
2018-08-28T04:02:17.086Z,51.20
2018-08-28T04:02:48.876Z,51.20
2018-08-28T04:03:20.713Z,51.10
2018-08-28T04:03:52.641Z,51.00
2018-08-28T04:04:24.600Z,51.10
2018-08-28T04:04:56.496Z,51.10
2018-08-28T04:05:28.378Z,51.30
2018-08-28T04:06:00.203Z,51.50
2018-08-28T04:06:31.992Z,51.70
2018-08-28T04:07:03.798Z,52.40
2018-08-28T04:07:35.610Z,51.80
2018-08-28T04:08:07.631Z,52.30
2018-08-28T04:08:39.549Z,51.80
2018-08-28T04:09:11.475Z,52.00
2018-08-28T04:09:43.252Z,51.50
2018-08-28T04:10:15.277Z,51.50
2018-08-28T04:10:47.064Z,51.40
2018-08-28T04:11:19.083Z,51.30
2018-08-28T04:11:51.024Z,51.20
2018-08-28T04:12:22.924Z,51.20
2018-08-28T04:12:54.931Z,51.20
2018-08-28T04:13:26.960Z,51.60
2018-08-28T04:13:58.865Z,50.70
2018-08-28T04:14:31.070Z,51.20
2018-08-28T04:15:02.892Z,51.20
2018-08-28T04:15:34.709Z,51.20
2018-08-28T04:16:06.572Z,51.20
2018-08-28T04:16:38.421Z,51.20
2018-08-28T04:17:10.488Z,51.20
2018-08-28T04:17:42.433Z,51.20
2018-08-28T04:18:14.425Z,51.20
2018-08-28T04:18:46.270Z,51.30
2018-08-28T04:19:18.161Z,51.20
2018-08-28T04:19:50.051Z,51.20
2018-08-28T04:20:21.890Z,51.20
2018-08-28T04:20:53.753Z,51.30
2018-08-28T04:21:25.680Z,51.30
2018-08-28T04:21:57.753Z,51.40
2018-08-28T04:22:29.657Z,51.60
2018-08-28T04:23:01.669Z,51.60
2018-08-28T04:23:33.489Z,51.60
2018-08-28T04:24:05.344Z,51.60
2018-08-28T04:24:37.141Z,51.70
2018-08-28T04:25:08.960Z,51.60
2018-08-28T04:25:40.763Z,51.70
2018-08-28T04:26:12.534Z,51.60
2018-08-28T04:26:44.468Z,51.60
2018-08-28T04:27:16.582Z,51.60
2018-08-28T04:27:48.569Z,51.60
2018-08-28T04:28:20.482Z,51.50
2018-08-28T04:28:52.451Z,52.00
2018-08-28T04:29:24.274Z,52.20
2018-08-28T04:29:56.190Z,52.70
2018-08-28T04:30:28.154Z,52.20
2018-08-28T04:31:00.319Z,52.10
2018-08-28T04:31:32.323Z,52.20
2018-08-28T04:32:04.150Z,52.20
2018-08-28T04:32:36.009Z,52.60
2018-08-28T04:33:07.829Z,52.60
2018-08-28T04:33:39.614Z,52.60
2018-08-28T04:34:11.502Z,52.50
2018-08-28T04:34:43.511Z,52.50
2018-08-28T04:35:15.354Z,52.50
2018-08-28T04:35:47.273Z,52.50
2018-08-28T04:36:19.108Z,52.60
2018-08-28T04:36:50.923Z,52.70
2018-08-28T04:37:22.864Z,52.80
2018-08-28T04:37:54.732Z,52.80
2018-08-28T04:38:26.533Z,52.80
2018-08-28T04:38:58.403Z,53.00
2018-08-28T04:39:30.302Z,53.10
2018-08-28T04:40:02.126Z,53.20
2018-08-28T04:40:34.124Z,53.60
2018-08-28T04:41:05.928Z,53.20
2018-08-28T04:41:37.768Z,53.30
2018-08-28T04:42:09.565Z,53.20
2018-08-28T04:42:41.424Z,53.50
2018-08-28T04:43:13.268Z,53.20
2018-08-28T04:43:45.402Z,53.10
2018-08-28T04:44:17.274Z,53.20
2018-08-28T04:44:49.064Z,53.20
2018-08-28T04:45:20.955Z,53.20
2018-08-28T04:45:52.856Z,53.30
2018-08-28T04:46:24.656Z,53.30
2018-08-28T04:46:56.634Z,53.30
2018-08-28T04:47:28.510Z,53.40
2018-08-28T04:48:00.313Z,53.40
2018-08-28T04:48:32.155Z,53.40
2018-08-28T04:49:04.204Z,53.40
2018-08-28T04:49:35.987Z,53.50
2018-08-28T04:50:07.844Z,53.90
2018-08-28T04:50:39.663Z,53.80
2018-08-28T04:51:11.448Z,53.70
2018-08-28T04:51:43.485Z,53.10
2018-08-28T04:52:15.306Z,53.60
2018-08-28T04:52:47.174Z,53.70
2018-08-28T04:53:19.035Z,53.70
2018-08-28T04:53:50.876Z,54.10
2018-08-28T04:54:22.722Z,54.20
2018-08-28T04:54:54.856Z,54.00
2018-08-28T04:55:26.816Z,53.90
2018-08-28T04:55:59.139Z,53.90
2018-08-28T04:56:32.526Z,53.90
2018-08-28T04:57:04.309Z,54.00
2018-08-28T04:57:36.108Z,54.10
2018-08-28T04:58:07.898Z,54.10
2018-08-28T04:58:39.784Z,54.30
2018-08-28T04:59:11.636Z,54.20
2018-08-28T04:59:43.437Z,54.30
2018-08-28T05:00:15.228Z,54.30
2018-08-28T05:00:47.071Z,54.20
2018-08-28T05:01:19.049Z,53.90
2018-08-28T05:01:51.046Z,53.90
2018-08-28T05:02:22.946Z,53.90
2018-08-28T05:02:54.721Z,54.00
2018-08-28T05:03:26.509Z,54.00
2018-08-28T05:03:58.290Z,54.00
2018-08-28T05:04:30.127Z,53.90
2018-08-28T05:05:02.193Z,53.80
2018-08-28T05:05:34.137Z,53.70
2018-08-28T05:06:05.960Z,53.80
2018-08-28T05:06:37.787Z,53.90
2018-08-28T05:07:09.551Z,54.00
2018-08-28T05:07:41.427Z,53.90
2018-08-28T05:08:13.411Z,53.80
2018-08-28T05:08:45.227Z,53.80
2018-08-28T05:09:17.388Z,54.20
2018-08-28T05:09:49.207Z,54.30
2018-08-28T05:10:21.236Z,54.30
2018-08-28T05:10:53.158Z,54.10
2018-08-28T05:11:24.923Z,54.00
2018-08-28T05:11:56.968Z,54.00
2018-08-28T05:12:29.003Z,54.00
2018-08-28T05:13:00.778Z,54.00
2018-08-28T05:13:32.778Z,54.00
2018-08-28T05:14:04.737Z,53.90
2018-08-28T05:14:36.550Z,54.00
2018-08-28T05:15:08.389Z,54.00
2018-08-28T05:15:40.168Z,54.00
2018-08-28T05:16:11.984Z,54.00
2018-08-28T05:16:43.871Z,54.00
2018-08-28T05:17:15.656Z,54.20
2018-08-28T05:17:47.519Z,54.00
2018-08-28T05:18:19.309Z,54.10
2018-08-28T05:18:51.164Z,54.00
2018-08-28T05:19:23.062Z,54.10
2018-08-28T05:19:55.137Z,54.10
2018-08-28T05:20:27.029Z,54.10
2018-08-28T05:20:58.844Z,54.20
2018-08-28T05:21:30.658Z,54.10
2018-08-28T05:22:02.424Z,54.00
2018-08-28T05:22:34.409Z,54.10
2018-08-28T05:23:06.309Z,54.00
2018-08-28T05:23:38.169Z,54.00
2018-08-28T05:24:09.987Z,54.20
2018-08-28T05:24:41.823Z,54.20
2018-08-28T05:25:13.745Z,54.10
2018-08-28T05:25:45.640Z,54.20
2018-08-28T05:26:17.449Z,54.30
2018-08-28T05:26:49.282Z,54.40
2018-08-28T05:27:21.211Z,54.20
2018-08-28T05:27:53.029Z,54.20
2018-08-28T05:28:24.938Z,54.40
2018-08-28T05:28:56.769Z,54.30
2018-08-28T05:29:28.770Z,54.40
2018-08-28T05:30:00.793Z,54.40
2018-08-28T05:30:32.672Z,54.30
2018-08-28T05:31:04.734Z,54.20
2018-08-28T05:31:36.611Z,54.20
2018-08-28T05:32:08.450Z,54.20
2018-08-28T05:32:40.321Z,54.20
2018-08-28T05:33:12.231Z,54.10
2018-08-28T05:33:44.282Z,54.70
2018-08-28T05:34:16.281Z,54.30
2018-08-28T05:34:48.291Z,54.30
2018-08-28T05:35:20.140Z,54.50
2018-08-28T05:35:52.173Z,54.10
2018-08-28T05:36:24.172Z,54.10
2018-08-28T05:36:56.121Z,54.20
2018-08-28T05:37:28.049Z,54.30
2018-08-28T05:37:59.953Z,54.60
2018-08-28T05:38:32.032Z,54.60
2018-08-28T05:39:03.886Z,54.50
2018-08-28T05:39:35.721Z,54.50
2018-08-28T05:40:07.552Z,54.80
2018-08-28T05:40:39.372Z,54.60
2018-08-28T05:41:11.650Z,54.50
2018-08-28T05:41:43.535Z,54.50
2018-08-28T05:42:15.505Z,54.50
2018-08-28T05:42:47.341Z,54.50
2018-08-28T05:43:19.162Z,54.70
2018-08-28T05:43:50.967Z,54.60
2018-08-28T05:44:22.851Z,54.50
2018-08-28T05:44:54.732Z,54.60
2018-08-28T05:45:26.789Z,54.80
2018-08-28T05:45:58.686Z,54.60
2018-08-28T05:46:30.497Z,54.70
2018-08-28T05:47:02.601Z,54.90
2018-08-28T05:47:34.406Z,54.50
2018-08-28T05:48:06.253Z,55.00
2018-08-28T05:48:38.261Z,54.60
2018-08-28T05:49:10.162Z,54.60
2018-08-28T05:49:42.108Z,54.50
2018-08-28T05:50:14.474Z,54.60
2018-08-28T05:50:46.292Z,54.60
2018-08-28T05:51:18.091Z,54.50
2018-08-28T05:51:49.992Z,54.50
2018-08-28T05:52:21.833Z,54.40
2018-08-28T05:52:53.602Z,54.40
2018-08-28T05:53:25.730Z,54.50
2018-08-28T05:53:57.865Z,54.50
2018-08-28T05:54:29.922Z,54.40
2018-08-28T05:55:01.839Z,54.50
2018-08-28T05:55:33.754Z,54.50
2018-08-28T05:56:05.619Z,54.60
2018-08-28T05:56:37.706Z,54.60
2018-08-28T05:57:09.567Z,54.50
2018-08-28T05:57:41.393Z,54.60
2018-08-28T05:58:13.415Z,54.60
2018-08-28T05:58:45.246Z,54.50
2018-08-28T05:59:17.071Z,54.50
2018-08-28T05:59:48.917Z,54.50
2018-08-28T06:00:20.913Z,54.50
2018-08-28T06:00:52.716Z,54.70
2018-08-28T06:01:24.552Z,54.70
2018-08-28T06:01:56.435Z,54.70
2018-08-28T06:02:28.285Z,54.70
2018-08-28T06:03:00.279Z,54.60
2018-08-28T06:03:32.327Z,54.70
2018-08-28T06:04:04.494Z,54.70
2018-08-28T06:04:36.303Z,54.50
2018-08-28T06:05:08.133Z,54.50
2018-08-28T06:05:40.104Z,54.50
2018-08-28T06:06:11.993Z,54.50
2018-08-28T06:06:43.915Z,55.10
2018-08-28T06:07:15.805Z,54.50
2018-08-28T06:07:47.663Z,54.60
2018-08-28T06:08:19.483Z,54.60
2018-08-28T06:08:51.313Z,54.60
2018-08-28T06:09:23.611Z,54.60
2018-08-28T06:09:55.542Z,54.60
2018-08-28T06:10:27.492Z,54.60
2018-08-28T06:10:59.312Z,54.60
2018-08-28T06:11:31.140Z,54.60
2018-08-28T06:12:02.981Z,54.60
2018-08-28T06:12:34.929Z,54.50
2018-08-28T06:13:06.843Z,55.20
2018-08-28T06:13:38.680Z,54.80
2018-08-28T06:14:10.561Z,54.70
2018-08-28T06:14:42.368Z,54.60
2018-08-28T06:15:14.604Z,55.30
2018-08-28T06:15:46.700Z,54.70
2018-08-28T06:16:18.534Z,54.70
2018-08-28T06:16:50.471Z,54.70
2018-08-28T06:17:22.525Z,54.80
2018-08-28T06:17:54.372Z,54.90
2018-08-28T06:18:26.170Z,54.70
2018-08-28T06:18:58.009Z,54.90
2018-08-28T06:19:29.794Z,54.70
2018-08-28T06:20:01.743Z,54.80
2018-08-28T06:20:33.709Z,54.90
2018-08-28T06:21:05.612Z,54.80
2018-08-28T06:21:37.659Z,54.80
2018-08-28T06:22:09.591Z,54.60
2018-08-28T06:22:41.700Z,54.60
2018-08-28T06:23:13.544Z,54.60
2018-08-28T06:23:45.610Z,54.70
2018-08-28T06:24:17.629Z,54.60
2018-08-28T06:24:49.450Z,54.50
2018-08-28T06:25:21.543Z,54.40
2018-08-28T06:25:53.710Z,54.50
2018-08-28T06:26:25.513Z,54.40
2018-08-28T06:26:57.351Z,54.40
2018-08-28T06:27:29.147Z,54.40
2018-08-28T06:28:01.087Z,54.40
2018-08-28T06:28:32.884Z,54.30
2018-08-28T06:29:04.860Z,54.40
2018-08-28T06:29:36.982Z,54.40
2018-08-28T06:30:08.796Z,54.40
2018-08-28T06:30:40.757Z,54.50
2018-08-28T06:31:12.549Z,54.50
2018-08-28T06:31:44.412Z,54.50
2018-08-28T06:32:16.409Z,54.70
2018-08-28T06:32:48.388Z,54.60
2018-08-28T06:33:20.189Z,54.60
2018-08-28T06:33:52.092Z,54.60
2018-08-28T06:34:24.062Z,54.70
2018-08-28T06:34:55.967Z,54.50
2018-08-28T06:35:27.778Z,54.50
2018-08-28T06:35:59.789Z,54.50
2018-08-28T06:36:31.628Z,54.40
2018-08-28T06:37:03.794Z,54.40
2018-08-28T06:37:35.820Z,54.40
2018-08-28T06:38:07.780Z,54.60
2018-08-28T06:38:39.670Z,54.50
2018-08-28T06:39:11.697Z,54.70
2018-08-28T06:39:43.528Z,54.90
2018-08-28T06:40:15.341Z,54.60
2018-08-28T06:40:47.194Z,55.10
2018-08-28T06:41:18.989Z,54.30
2018-08-28T06:41:50.867Z,54.30
2018-08-28T06:42:22.658Z,54.30
2018-08-28T06:42:54.758Z,54.40
2018-08-28T06:43:26.664Z,54.50
2018-08-28T06:43:58.726Z,54.40
2018-08-28T06:44:30.739Z,54.50
2018-08-28T06:45:02.510Z,54.30
2018-08-28T06:45:34.335Z,54.30
2018-08-28T06:46:06.208Z,54.30
2018-08-28T06:46:38.058Z,54.30
2018-08-28T06:47:09.887Z,54.30
2018-08-28T06:47:41.697Z,54.30
2018-08-28T06:48:13.720Z,54.40
2018-08-28T06:48:45.567Z,54.20
2018-08-28T06:49:17.386Z,54.30
2018-08-28T06:49:49.483Z,54.30
2018-08-28T06:50:21.274Z,54.20
2018-08-28T06:50:53.211Z,54.10